Time;durP1;ratioP1;P1;durP2;ratioP2;P2;SDS_P1;SDS_P2;PMS_P1;PMS_P2;Temp;Humidity;BMP_temperature;BMP_pressure;BME280_temperature;BME280_humidity;BME280_pressure;Samples;Min_cycle;Max_cycle;Signal;HPM_P1;HPM_P2
2021/10/02 00:37:48;;;;;;;6.70;1.50;;;;;;;13.39;64.88;100625.42;115538;1193;61286;-80
2021/10/02 00:45:46;;;;;;;5.80;0.80;;;;;;;13.43;64.66;100618.23;115730;1192;72790;-80
2021/10/02 00:48:12;;;;;;;1.20;0.50;;;;;;;13.45;64.58;100616.61;115783;1193;62317;-79
2021/10/02 00:50:39;;;;;;;2.50;0.90;;;;;;;13.47;64.50;100615.84;115613;1193;59539;-79
2021/10/02 00:53:06;;;;;;;1.50;0.80;;;;;;;13.47;64.48;100614.04;115821;1193;73959;-79
2021/10/02 00:55:33;;;;;;;0.90;0.70;;;;;;;13.49;64.25;100609.73;115790;1192;72250;-79
2021/10/02 00:57:59;;;;;;;4.00;1.40;;;;;;;13.49;64.40;100612.40;115775;1192;73049;-79
2021/10/02 01:00:26;;;;;;;3.20;0.90;;;;;;;13.49;64.40;100612.04;115558;1193;58836;-79
2021/10/02 01:03:00;;;;;;;1.80;0.80;;;;;;;13.48;64.41;100607.40;115717;1193;59958;-79
2021/10/02 01:05:54;;;;;;;1.60;0.70;;;;;;;13.47;64.38;100607.31;115735;1192;74629;-80
2021/10/02 01:08:23;;;;;;;4.30;0.90;;;;;;;13.46;64.50;100607.10;115619;1193;71231;-80
2021/10/02 01:11:03;;;;;;;3.80;0.80;;;;;;;13.44;64.62;100603.52;115743;1192;72815;-80
2021/10/02 01:13:44;;;;;;;2.50;0.90;;;;;;;13.43;64.70;100607.79;115527;1193;61769;-79
2021/10/02 01:16:25;;;;;;;3.60;0.90;;;;;;;13.43;64.95;100608.35;115704;1192;59971;-79
2021/10/02 01:19:33;;;;;;;2.40;0.70;;;;;;;13.42;65.16;100603.68;115584;1193;75605;-79
2021/10/02 01:22:19;;;;;;;2.20;0.70;;;;;;;13.41;65.15;100603.96;115452;1192;72203;-80
2021/10/02 01:25:05;;;;;;;2.10;0.80;;;;;;;13.39;65.38;100600.63;115643;1192;73708;-79
2021/10/02 01:27:59;;;;;;;2.20;1.30;;;;;;;13.37;65.37;100602.17;115650;1193;60055;-79
2021/10/02 01:33:17;;;;;;;2.10;0.60;;;;;;;13.32;65.46;100598.98;115863;1192;75565;-79
2021/10/02 01:35:54;;;;;;;2.50;0.80;;;;;;;13.30;65.10;100599.41;115732;1193;71029;-79
2021/10/02 01:49:30;;;;;;;2.00;0.80;;;;;;;13.26;64.63;100589.48;115744;1192;70143;-79
2021/10/02 01:51:58;;;;;;;2.70;0.70;;;;;;;13.28;64.37;100591.27;115608;1193;72652;-79
2021/10/02 01:54:28;;;;;;;2.40;1.10;;;;;;;13.29;64.39;100591.98;115814;1193;60160;-79
2021/10/02 01:56:56;;;;;;;3.50;1.00;;;;;;;13.31;64.58;100585.36;115643;1193;60450;-80
2021/10/02 01:59:26;;;;;;;2.40;0.80;;;;;;;13.32;64.40;100580.70;115586;1193;74232;-79
2021/10/02 02:01:53;;;;;;;2.40;0.70;;;;;;;13.32;64.75;100584.75;115683;1193;71232;-79
2021/10/02 02:04:21;;;;;;;1.90;1.00;;;;;;;13.31;64.66;100583.40;115740;1192;72496;-79
2021/10/02 02:06:49;;;;;;;2.10;0.70;;;;;;;13.31;64.73;100585.16;115651;1193;61612;-79
2021/10/02 02:09:16;;;;;;;2.10;0.60;;;;;;;13.30;64.95;100584.74;115568;1193;60852;-79
2021/10/02 02:11:45;;;;;;;3.60;0.90;;;;;;;13.29;65.41;100586.70;115779;1192;75635;-79
2021/10/02 02:14:14;;;;;;;2.80;1.30;;;;;;;13.27;65.51;100588.84;115580;1193;72065;-79
2021/10/02 02:16:44;;;;;;;1.80;0.90;;;;;;;13.25;65.61;100591.53;115721;1193;72601;-80
2021/10/02 02:19:12;;;;;;;2.20;0.70;;;;;;;13.24;66.12;100588.13;115639;1192;62750;-80
2021/10/02 02:21:39;;;;;;;1.90;0.90;;;;;;;13.23;66.45;100584.88;115589;1193;61289;-80
2021/10/02 02:24:06;;;;;;;2.30;0.90;;;;;;;13.22;67.01;100589.88;115674;1193;74689;-80
2021/10/02 02:26:35;;;;;;;2.70;1.10;;;;;;;13.19;67.78;100586.83;115626;1193;72593;-80
2021/10/02 02:29:02;;;;;;;2.70;0.80;;;;;;;13.16;68.41;100585.97;115626;1193;73599;-79
2021/10/02 02:31:29;;;;;;;3.10;1.10;;;;;;;13.13;68.87;100583.17;115559;1193;61117;-79
2021/10/02 02:33:56;;;;;;;1.50;1.00;;;;;;;13.09;69.64;100584.95;115828;1192;60154;-79
2021/10/02 02:36:23;;;;;;;2.80;1.00;;;;;;;13.04;70.15;100585.52;115677;1192;73873;-79
2021/10/02 02:38:50;;;;;;;2.90;0.80;;;;;;;13.01;71.26;100586.85;115693;1192;72044;-79
2021/10/02 02:41:17;;;;;;;2.60;1.00;;;;;;;12.93;71.86;100586.59;115549;1193;72559;-79
2021/10/02 02:43:43;;;;;;;2.90;1.10;;;;;;;12.85;72.57;100584.89;115652;1193;59635;-79
2021/10/02 02:46:17;;;;;;;2.30;0.90;;;;;;;12.78;73.24;100589.20;115626;1193;61348;-79
2021/10/02 02:49:02;;;;;;;3.00;1.00;;;;;;;12.70;74.03;100598.91;115669;1193;76266;-79
2021/10/02 02:51:38;;;;;;;2.20;0.90;;;;;;;12.60;74.73;100597.27;115688;1192;71050;-79
2021/10/02 02:54:14;;;;;;;2.80;0.90;;;;;;;12.53;75.15;100599.67;115772;1192;72512;-79
2021/10/02 02:56:45;;;;;;;4.90;1.10;;;;;;;12.50;75.60;100600.50;115659;1193;62914;-79
2021/10/02 02:59:24;;;;;;;1.90;0.90;;;;;;;12.48;75.64;100602.64;115731;1193;61209;-79
2021/10/02 03:01:52;;;;;;;1.50;1.10;;;;;;;12.44;76.30;100597.45;115578;1193;74333;-78
2021/10/02 03:04:26;;;;;;;2.40;1.00;;;;;;;12.40;77.08;100588.08;115642;1193;71003;-78
2021/10/02 03:06:55;;;;;;;2.00;0.70;;;;;;;12.34;77.41;100583.58;115597;1193;72483;-78
2021/10/02 03:09:22;;;;;;;3.90;1.30;;;;;;;12.30;77.98;100587.36;115613;1192;60936;-78
2021/10/02 03:11:51;;;;;;;3.00;1.30;;;;;;;12.26;78.30;100587.11;115757;1192;59919;-78
2021/10/02 03:14:20;;;;;;;2.20;0.90;;;;;;;12.22;78.89;100592.81;115639;1193;75329;-79
2021/10/02 03:16:50;;;;;;;3.30;1.10;;;;;;;12.18;79.37;100582.05;115825;1192;69864;-78
2021/10/02 03:19:20;;;;;;;3.40;1.10;;;;;;;12.12;79.51;100583.98;115613;1193;73678;-78
2021/10/02 03:21:50;;;;;;;2.60;1.20;;;;;;;12.07;80.08;100585.33;115714;1192;61691;-78
2021/10/02 03:24:18;;;;;;;2.20;1.20;;;;;;;12.02;81.10;100584.27;115727;1192;60226;-78
2021/10/02 03:26:45;;;;;;;3.10;0.80;;;;;;;11.98;81.18;100579.49;115643;1193;75126;-78
2021/10/02 03:29:13;;;;;;;3.80;1.00;;;;;;;11.93;81.63;100580.13;115611;1193;72057;-78
2021/10/02 03:31:41;;;;;;;2.50;1.00;;;;;;;11.89;82.15;100578.55;115704;1192;72521;-78
2021/10/02 03:34:09;;;;;;;5.40;1.40;;;;;;;11.87;82.59;100584.96;115751;1193;62324;-78
2021/10/02 03:36:36;;;;;;;3.50;1.40;;;;;;;11.83;83.29;100586.44;115771;1192;61370;-78
2021/10/02 03:39:03;;;;;;;3.00;1.30;;;;;;;11.80;83.58;100586.89;115798;1192;74331;-78
2021/10/02 03:41:29;;;;;;;4.10;1.40;;;;;;;11.79;83.88;100585.17;115773;1192;71158;-78
2021/10/02 03:43:56;;;;;;;3.00;1.60;;;;;;;11.78;83.95;100582.09;115602;1193;58889;-78
2021/10/02 03:46:23;;;;;;;2.60;1.10;;;;;;;11.76;84.18;100579.45;115635;1193;60143;-78
2021/10/02 03:48:51;;;;;;;2.60;0.80;;;;;;;11.74;84.63;100580.81;115755;1193;60705;-78
2021/10/02 03:51:18;;;;;;;2.70;0.90;;;;;;;11.70;84.77;100580.33;115689;1193;74684;-78
2021/10/02 03:53:44;;;;;;;3.90;1.80;;;;;;;11.68;85.20;100583.05;115652;1192;71016;-78
2021/10/02 03:56:13;;;;;;;6.00;1.50;;;;;;;11.67;85.72;100588.23;115651;1193;73605;-78
2021/10/02 03:58:39;;;;;;;3.00;1.30;;;;;;;11.66;85.52;100582.30;115560;1192;62126;-78
2021/10/02 04:01:07;;;;;;;3.20;1.30;;;;;;;11.66;85.83;100581.77;115793;1192;60287;-78
2021/10/02 04:03:33;;;;;;;2.30;1.50;;;;;;;11.64;86.33;100580.08;115605;1193;75240;-78
2021/10/02 04:06:00;;;;;;;3.70;1.20;;;;;;;11.62;86.51;100581.81;115740;1192;58973;-78
2021/10/02 04:08:26;;;;;;;2.80;1.40;;;;;;;11.62;87.02;100583.35;115710;1193;59641;-78
2021/10/02 04:10:53;;;;;;;6.30;1.60;;;;;;;11.62;86.86;100583.47;115622;1193;59019;-78
2021/10/02 04:13:19;;;;;;;2.80;1.20;;;;;;;11.62;87.01;100585.77;115672;1193;58776;-78
2021/10/02 04:15:46;;;;;;;2.80;1.50;;;;;;;11.61;87.41;100588.67;115764;1192;58954;-78
2021/10/02 04:18:17;;;;;;;2.80;1.40;;;;;;;11.61;87.38;100587.80;115584;1193;70799;-78
2021/10/02 04:20:43;;;;;;;2.60;1.60;;;;;;;11.62;87.18;100585.45;115803;1192;58933;-78
2021/10/02 04:23:10;;;;;;;3.10;1.10;;;;;;;11.64;86.93;100586.41;115639;1193;61686;-78
2021/10/02 04:25:36;;;;;;;2.50;1.30;;;;;;;11.64;87.38;100584.09;115610;1193;58966;-78
2021/10/02 04:28:03;;;;;;;4.50;1.50;;;;;;;11.63;87.05;100586.31;115639;1193;59136;-80
2021/10/02 04:30:29;;;;;;;4.00;1.50;;;;;;;11.62;87.16;100591.55;115630;1193;71979;-78
2021/10/02 04:32:56;;;;;;;5.20;1.30;;;;;;;11.64;87.16;100590.69;115710;1193;72744;-78
2021/10/02 04:35:22;;;;;;;2.30;1.20;;;;;;;11.65;86.90;100588.46;115711;1192;59089;-78
2021/10/02 04:37:49;;;;;;;5.10;1.10;;;;;;;11.65;87.27;100588.06;115637;1193;59192;-78
2021/10/02 04:40:15;;;;;;;2.50;1.40;;;;;;;11.65;87.45;100585.48;115634;1193;59295;-78
2021/10/02 04:42:43;;;;;;;3.60;1.50;;;;;;;11.64;87.54;100583.91;115592;1193;59447;-78
2021/10/02 04:45:10;;;;;;;2.10;1.10;;;;;;;11.65;87.77;100585.23;115625;1193;72657;-79
2021/10/02 04:47:36;;;;;;;2.10;1.50;;;;;;;11.66;87.71;100580.20;115655;1193;62405;-78
2021/10/02 04:50:03;;;;;;;3.00;1.50;;;;;;;11.67;87.63;100578.43;115633;1193;61859;-78
2021/10/02 04:52:30;;;;;;;4.00;1.30;;;;;;;11.68;87.58;100579.55;115633;1193;75530;-78
2021/10/02 04:54:57;;;;;;;3.40;1.10;;;;;;;11.69;87.60;100578.56;115666;1193;58907;-78
2021/10/02 04:57:23;;;;;;;2.20;1.10;;;;;;;11.68;87.79;100575.29;115735;1192;72314;-78
2021/10/02 04:59:50;;;;;;;2.70;1.20;;;;;;;11.68;87.75;100576.59;115616;1193;60153;-78
2021/10/02 05:02:16;;;;;;;6.40;1.70;;;;;;;11.67;88.01;100571.52;115642;1192;58929;-78
2021/10/02 05:04:43;;;;;;;3.50;1.50;;;;;;;11.67;88.11;100571.60;115595;1192;74624;-78
2021/10/02 05:07:09;;;;;;;4.00;1.50;;;;;;;11.66;88.03;100570.64;115633;1192;59091;-79
2021/10/02 05:09:36;;;;;;;3.10;1.60;;;;;;;11.66;88.14;100568.48;115862;1192;59565;-78
2021/10/02 05:12:03;;;;;;;4.50;1.60;;;;;;;11.66;87.96;100562.15;115811;1192;63059;-78
2021/10/02 05:14:29;;;;;;;2.80;1.90;;;;;;;11.67;88.03;100567.31;115759;1192;58881;-78
2021/10/02 05:16:56;;;;;;;4.20;1.60;;;;;;;11.69;88.25;100561.77;115604;1193;58902;-78
2021/10/02 05:19:23;;;;;;;3.60;1.50;;;;;;;11.70;87.91;100558.27;115826;1192;70757;-79
2021/10/02 05:21:49;;;;;;;5.30;1.90;;;;;;;11.70;87.79;100559.13;115661;1192;71570;-79
2021/10/02 05:24:16;;;;;;;2.50;1.20;;;;;;;11.69;87.80;100559.94;115478;1193;59004;-79
2021/10/02 05:26:42;;;;;;;3.00;1.30;;;;;;;11.69;87.85;100551.96;115748;1192;60778;-78
2021/10/02 05:29:09;;;;;;;2.10;1.00;;;;;;;11.70;87.52;100553.86;115724;1192;59007;-78
2021/10/02 05:31:35;;;;;;;2.40;1.20;;;;;;;11.71;87.37;100561.97;115684;1192;59666;-78
2021/10/02 05:34:02;;;;;;;7.00;1.30;;;;;;;11.73;87.38;100559.98;115691;1192;59088;-79
2021/10/02 05:36:28;;;;;;;2.50;1.10;;;;;;;11.76;87.20;100558.59;115588;1193;59087;-79
2021/10/02 05:38:55;;;;;;;10.10;2.50;;;;;;;11.79;87.10;100558.56;115604;1193;59950;-79
2021/10/02 05:41:22;;;;;;;2.30;1.10;;;;;;;11.82;87.06;100560.06;115522;1193;74578;-79
2021/10/02 05:43:48;;;;;;;5.30;1.00;;;;;;;11.85;87.05;100552.02;115708;1192;72582;-79
2021/10/02 05:46:15;;;;;;;2.60;1.00;;;;;;;11.86;87.18;100540.41;115639;1193;59085;-79
2021/10/02 05:48:41;;;;;;;3.20;1.00;;;;;;;11.83;87.19;100542.52;115573;1192;61203;-79
2021/10/02 05:51:10;;;;;;;2.90;1.40;;;;;;;11.82;87.00;100553.72;115609;1193;60162;-78
2021/10/02 05:53:36;;;;;;;3.00;1.10;;;;;;;11.83;86.88;100555.07;115785;1192;75863;-78
2021/10/02 05:56:03;;;;;;;2.00;1.20;;;;;;;11.85;86.64;100560.47;115549;1192;72534;-79
2021/10/02 05:58:30;;;;;;;4.50;1.30;;;;;;;11.88;86.24;100566.59;115554;1193;71203;-78
2021/10/02 06:00:56;;;;;;;2.90;1.40;;;;;;;11.90;86.22;100568.80;115693;1192;58935;-78
2021/10/02 06:03:23;;;;;;;3.20;1.70;;;;;;;11.93;86.19;100576.05;115742;1192;61580;-78
2021/10/02 06:05:50;;;;;;;4.60;2.10;;;;;;;11.96;86.23;100581.55;115549;1192;59057;-78
2021/10/02 06:08:16;;;;;;;5.50;1.90;;;;;;;11.99;86.07;100580.12;115768;1186;59053;-78
2021/10/02 06:10:43;;;;;;;3.30;1.20;;;;;;;12.01;86.03;100580.51;115759;1193;59186;-78
2021/10/02 06:13:09;;;;;;;6.90;2.10;;;;;;;12.02;85.85;100578.35;115789;1192;60056;-79
2021/10/02 06:15:36;;;;;;;3.90;1.60;;;;;;;12.03;85.79;100581.43;115724;1192;60030;-79
2021/10/02 06:18:02;;;;;;;3.10;1.50;;;;;;;12.04;85.62;100583.04;115634;1193;75858;-79
2021/10/02 06:20:29;;;;;;;3.00;1.50;;;;;;;12.06;85.43;100581.19;115667;1193;70945;-79
2021/10/02 06:22:55;;;;;;;3.40;1.40;;;;;;;12.08;85.55;100583.45;115666;1193;72951;-79
2021/10/02 06:25:22;;;;;;;4.10;1.40;;;;;;;12.10;85.72;100583.60;115628;1193;58852;-79
2021/10/02 06:27:48;;;;;;;2.20;1.20;;;;;;;12.12;85.62;100580.63;115746;1192;58888;-78
2021/10/02 06:30:15;;;;;;;4.20;1.30;;;;;;;12.14;85.55;100588.31;115727;1187;60591;-78
2021/10/02 06:32:42;;;;;;;3.00;1.20;;;;;;;12.17;85.59;100589.36;115663;1193;72229;-78
2021/10/02 06:35:09;;;;;;;4.30;1.80;;;;;;;12.22;85.45;100584.92;115511;1193;74332;-79
2021/10/02 06:37:35;;;;;;;3.00;2.10;;;;;;;12.28;85.20;100578.55;115600;1193;62153;-79
2021/10/02 06:40:04;;;;;;;6.30;1.50;;;;;;;12.33;84.80;100579.83;115586;1192;61254;-79
2021/10/02 06:42:31;;;;;;;4.20;1.30;;;;;;;12.36;84.68;100584.24;115529;1193;74532;-79
2021/10/02 06:44:57;;;;;;;2.20;1.00;;;;;;;12.38;84.65;100592.29;115580;1193;71090;-79
2021/10/02 06:47:24;;;;;;;2.30;1.20;;;;;;;12.40;84.66;100605.60;115588;1193;59410;-78
2021/10/02 06:49:53;;;;;;;3.20;1.20;;;;;;;12.40;84.72;100608.55;115676;1192;60350;-78
2021/10/02 06:52:20;;;;;;;2.20;1.10;;;;;;;12.41;84.93;100613.59;115683;1192;60323;-78
2021/10/02 06:54:46;;;;;;;4.20;1.50;;;;;;;12.43;84.68;100619.05;115644;1193;59421;-79
2021/10/02 06:57:13;;;;;;;4.00;1.10;;;;;;;12.44;84.81;100615.75;115619;1193;59058;-79
2021/10/02 06:59:39;;;;;;;2.30;1.50;;;;;;;12.44;84.85;100613.91;115783;1192;72576;-79
2021/10/02 07:02:06;;;;;;;4.40;1.20;;;;;;;12.47;84.76;100617.13;115738;1193;62892;-79
2021/10/02 07:04:33;;;;;;;3.20;1.10;;;;;;;12.50;84.86;100612.16;115534;1193;60205;-79
2021/10/02 07:06:59;;;;;;;3.50;1.50;;;;;;;12.53;84.69;100613.39;115716;1192;59309;-82
2021/10/02 07:09:26;;;;;;;2.70;1.30;;;;;;;12.57;84.81;100612.56;115827;1192;58919;-79
2021/10/02 07:11:52;;;;;;;2.30;1.20;;;;;;;12.62;84.68;100610.24;115690;1192;59115;-78
2021/10/02 07:14:19;;;;;;;2.40;1.10;;;;;;;12.71;84.37;100608.12;115611;1193;61185;-79
2021/10/02 07:16:46;;;;;;;1.50;0.80;;;;;;;12.85;84.20;100601.77;115626;1192;61270;-79
2021/10/02 07:19:15;;;;;;;3.60;1.00;;;;;;;13.08;83.97;100592.45;115782;1192;74674;-74
2021/10/02 07:21:43;;;;;;;3.70;1.70;;;;;;;13.30;83.10;100589.04;115657;1192;72003;-75
2021/10/02 07:24:11;;;;;;;5.20;1.40;;;;;;;13.50;82.92;100589.33;115770;1193;74207;-75
2021/10/02 07:26:37;;;;;;;5.00;1.50;;;;;;;13.68;81.86;100589.91;115636;1193;61388;-74
2021/10/02 07:29:04;;;;;;;3.40;1.10;;;;;;;13.80;81.66;100595.02;115614;1193;59055;-74
2021/10/02 07:31:30;;;;;;;2.50;1.20;;;;;;;13.89;81.31;100596.64;115620;1192;59472;-74
2021/10/02 07:33:57;;;;;;;2.30;1.20;;;;;;;13.93;80.79;100605.85;115727;1192;58899;-74
2021/10/02 07:36:24;;;;;;;3.20;1.20;;;;;;;13.95;80.84;100609.19;115659;1193;58605;-74
2021/10/02 07:38:50;;;;;;;2.70;0.90;;;;;;;13.91;80.67;100608.11;115607;1192;61661;-74
2021/10/02 07:41:18;;;;;;;3.60;1.20;;;;;;;13.86;80.78;100601.60;115666;1192;59592;-74
2021/10/02 07:43:55;;;;;;;2.50;1.00;;;;;;;13.80;80.70;100597.35;115580;1193;74524;-74
2021/10/02 07:46:23;;;;;;;4.60;1.20;;;;;;;13.77;80.72;100592.79;115635;1192;70957;-74
2021/10/02 07:48:53;;;;;;;3.10;1.20;;;;;;;13.81;81.04;100590.54;115700;1193;72555;-74
2021/10/02 07:51:21;;;;;;;5.90;1.40;;;;;;;13.89;80.93;100599.02;115698;1192;63869;-74
2021/10/02 07:53:51;;;;;;;4.30;1.30;;;;;;;14.01;80.66;100595.42;115725;1192;60619;-74
2021/10/02 07:56:19;;;;;;;2.70;1.00;;;;;;;14.14;80.41;100587.67;115697;1192;74686;-74
2021/10/02 07:58:47;;;;;;;3.10;1.20;;;;;;;14.27;79.45;100579.77;115489;1193;72073;-74
2021/10/02 08:01:15;;;;;;;2.80;1.30;;;;;;;14.40;79.72;100582.98;115605;1192;72620;-74
2021/10/02 08:03:42;;;;;;;1.80;0.70;;;;;;;14.51;79.42;100588.45;115723;1193;60586;-74
2021/10/02 08:06:09;;;;;;;3.00;1.20;;;;;;;14.55;79.01;100591.03;115826;1192;60477;-74
2021/10/02 08:08:36;;;;;;;3.20;1.00;;;;;;;14.51;78.29;100598.21;115589;1192;74513;-74
2021/10/02 08:11:06;;;;;;;2.70;1.10;;;;;;;14.43;78.15;100595.58;115638;1193;71133;-74
2021/10/02 08:13:34;;;;;;;1.80;1.10;;;;;;;14.37;78.54;100585.02;115703;1192;73721;-75
2021/10/02 08:16:01;;;;;;;3.00;1.20;;;;;;;14.32;78.71;100571.95;115598;1192;62639;-74
2021/10/02 08:18:36;;;;;;;2.50;1.10;;;;;;;14.34;79.31;100572.98;115567;1193;60395;-74
2021/10/02 08:21:05;;;;;;;7.40;1.40;;;;;;;14.35;79.09;100578.58;115555;1193;75940;-74
2021/10/02 08:23:36;;;;;;;2.70;1.40;;;;;;;14.33;78.89;100580.61;115689;1192;72033;-74
2021/10/02 08:26:03;;;;;;;3.90;1.40;;;;;;;14.35;79.06;100580.29;115644;1193;73597;-75
2021/10/02 08:28:33;;;;;;;2.10;1.30;;;;;;;14.41;78.87;100583.63;115737;1192;60003;-76
2021/10/02 08:31:02;;;;;;;3.40;1.00;;;;;;;14.43;78.49;100579.41;115726;1192;60240;-76
2021/10/02 08:33:29;;;;;;;4.50;1.50;;;;;;;14.48;78.40;100575.22;115688;1192;75748;-75
2021/10/02 08:35:56;;;;;;;5.00;1.60;;;;;;;14.51;78.52;100579.38;115686;1193;70989;-74
2021/10/02 08:38:22;;;;;;;3.40;1.10;;;;;;;14.56;78.41;100586.46;115671;1192;72511;-74
2021/10/02 08:40:54;;;;;;;3.70;1.30;;;;;;;14.62;78.46;100582.08;115648;1193;61798;-74
2021/10/02 08:43:21;;;;;;;4.00;1.50;;;;;;;14.69;78.08;100581.36;115746;1192;60922;-74
2021/10/02 08:45:48;;;;;;;3.90;1.30;;;;;;;14.74;77.66;100580.64;115792;1192;74262;-74
2021/10/02 08:48:17;;;;;;;2.90;1.30;;;;;;;14.77;77.22;100576.67;115600;1192;71856;-74
2021/10/02 08:50:46;;;;;;;2.60;1.40;;;;;;;14.82;77.21;100578.11;115851;1192;72762;-74
2021/10/02 08:53:14;;;;;;;2.20;1.10;;;;;;;14.88;77.02;100576.86;115633;1193;61971;-74
2021/10/02 08:55:42;;;;;;;5.20;1.50;;;;;;;14.91;76.72;100580.02;115836;1192;61413;-74
2021/10/02 08:58:09;;;;;;;3.70;1.20;;;;;;;14.92;76.61;100580.45;115838;1192;75828;-74
2021/10/02 09:00:39;;;;;;;3.30;1.40;;;;;;;14.93;76.42;100575.46;115773;1192;71023;-74
2021/10/02 09:03:06;;;;;;;1.90;1.30;;;;;;;14.97;76.26;100573.13;115834;1192;72533;-74
2021/10/02 09:05:33;;;;;;;1.60;1.00;;;;;;;15.03;76.04;100574.18;115812;1192;60330;-74
2021/10/02 09:08:00;;;;;;;2.90;1.00;;;;;;;15.12;76.16;100577.34;115587;1193;58942;-74
2021/10/02 09:10:29;;;;;;;2.50;1.20;;;;;;;15.15;75.69;100577.66;115701;1192;75571;-74
2021/10/02 09:12:56;;;;;;;2.70;1.20;;;;;;;15.18;75.74;100574.61;115651;1193;72016;-74
2021/10/02 09:15:23;;;;;;;3.40;1.60;;;;;;;15.28;75.68;100574.23;115775;1193;73419;-74
2021/10/02 09:17:49;;;;;;;10.00;1.20;;;;;;;15.38;75.75;100572.56;115775;1192;61481;-74
2021/10/02 09:20:17;;;;;;;1.80;0.90;;;;;;;15.47;75.43;100566.86;115684;1193;60279;-74
2021/10/02 09:23:03;;;;;;;4.00;1.30;;;;;;;15.57;74.88;100563.33;115705;1193;74604;-74
2021/10/02 09:25:31;;;;;;;2.90;1.30;;;;;;;15.68;73.83;100560.42;115602;1193;72317;-74
2021/10/02 09:28:13;;;;;;;3.60;1.10;;;;;;;15.88;73.64;100561.14;115894;1192;72488;-74
2021/10/02 09:30:43;;;;;;;2.90;1.10;;;;;;;16.09;72.54;100566.22;115826;1192;61098;-74
2021/10/02 09:33:19;;;;;;;5.30;1.20;;;;;;;16.20;71.88;100567.20;115722;1193;59517;-74
2021/10/02 09:35:47;;;;;;;2.50;1.10;;;;;;;16.25;71.46;100562.73;115720;1193;74629;-74
2021/10/02 09:38:17;;;;;;;1.90;0.80;;;;;;;16.22;71.75;100564.74;115737;1193;70991;-74
2021/10/02 09:40:52;;;;;;;3.70;0.80;;;;;;;16.15;72.25;100564.05;115717;1193;72666;-74
2021/10/02 09:43:19;;;;;;;4.60;1.10;;;;;;;16.12;72.48;100561.71;115679;1192;61638;-74
2021/10/02 09:45:47;;;;;;;3.80;1.40;;;;;;;16.14;71.96;100557.27;115609;1193;60007;-74
2021/10/02 09:48:26;;;;;;;3.00;1.10;;;;;;;16.25;72.08;100541.46;115829;1192;75162;-74
2021/10/02 09:50:53;;;;;;;4.70;1.50;;;;;;;16.39;72.13;100537.53;115591;1193;72108;-73
2021/10/02 09:53:20;;;;;;;3.20;1.30;;;;;;;16.44;70.82;100539.14;115810;1192;59291;-74
2021/10/02 09:55:52;;;;;;;2.40;1.10;;;;;;;16.43;71.25;100539.04;115726;1193;60260;-74
2021/10/02 09:58:27;;;;;;;4.80;1.40;;;;;;;16.39;71.14;100540.38;115919;1192;61241;-74
2021/10/02 10:00:56;;;;;;;1.70;0.90;;;;;;;16.40;71.11;100537.40;115572;1193;75592;-74
2021/10/02 10:03:23;;;;;;;2.80;1.00;;;;;;;16.45;70.54;100534.61;115654;1193;71469;-74
2021/10/02 10:05:54;;;;;;;3.50;1.10;;;;;;;16.49;70.74;100535.23;115832;1192;59245;-74
2021/10/02 10:08:28;;;;;;;5.30;1.20;;;;;;;16.51;70.57;100536.95;115845;1192;60348;-73
2021/10/02 10:11:13;;;;;;;2.30;1.10;;;;;;;16.51;70.93;100537.20;115810;1193;60268;-73
2021/10/02 10:13:39;;;;;;;1.50;0.80;;;;;;;16.50;71.12;100533.61;115763;1193;75698;-73
2021/10/02 10:16:08;;;;;;;2.90;1.30;;;;;;;16.54;71.19;100534.21;115884;1192;70791;-74
2021/10/02 10:18:38;;;;;;;2.30;1.00;;;;;;;16.65;70.84;100529.39;115698;1193;72475;-74
2021/10/02 10:21:11;;;;;;;3.10;0.90;;;;;;;16.82;69.91;100517.66;115709;1193;60296;-74
2021/10/02 10:23:40;;;;;;;2.20;0.90;;;;;;;16.98;69.92;100516.16;115754;1193;59985;-74
2021/10/02 10:26:19;;;;;;;2.80;1.30;;;;;;;17.18;69.78;100519.52;115582;1192;75769;-74
2021/10/02 10:28:49;;;;;;;1.30;0.70;;;;;;;17.29;68.85;100524.55;115789;1192;71096;-75
2021/10/02 10:31:22;;;;;;;2.30;1.20;;;;;;;17.36;68.58;100525.04;115829;1192;73617;-75
2021/10/02 10:33:58;;;;;;;3.50;1.20;;;;;;;17.28;67.10;100526.89;115551;1193;60300;-76
2021/10/02 10:36:28;;;;;;;3.10;1.10;;;;;;;17.17;67.07;100523.64;115727;1192;60901;-75
2021/10/02 10:38:54;;;;;;;2.00;0.90;;;;;;;17.15;67.39;100517.85;115717;1192;76211;-76
2021/10/02 10:41:22;;;;;;;2.30;1.00;;;;;;;17.14;67.47;100507.55;115770;1193;71005;-76
2021/10/02 10:43:49;;;;;;;3.10;0.90;;;;;;;17.18;67.37;100509.36;115714;1192;72996;-76
2021/10/02 10:46:25;;;;;;;1.60;0.90;;;;;;;17.14;67.54;100511.66;115833;1192;61666;-76
2021/10/02 10:48:51;;;;;;;2.80;0.90;;;;;;;17.10;67.89;100513.98;115856;1192;59374;-76
2021/10/02 10:51:20;;;;;;;1.40;0.60;;;;;;;17.06;67.68;100514.85;115824;1193;59642;-76
2021/10/02 10:53:48;;;;;;;1.30;0.60;;;;;;;17.10;67.82;100510.75;115604;1193;70849;-76
2021/10/02 10:56:17;;;;;;;1.70;0.70;;;;;;;17.24;67.33;100502.36;115783;1192;73894;-76
2021/10/02 10:58:57;;;;;;;3.30;0.90;;;;;;;17.44;66.80;100502.58;115711;1193;61324;-76
2021/10/02 11:01:38;;;;;;;1.80;0.70;;;;;;;17.73;65.91;100501.08;115763;1192;61043;-76
2021/10/02 11:04:06;;;;;;;2.30;0.70;;;;;;;18.01;65.27;100504.39;115832;1192;75629;-76
2021/10/02 11:06:55;;;;;;;2.10;0.70;;;;;;;18.30;65.18;100496.42;115706;1192;72073;-76
2021/10/02 11:09:41;;;;;;;2.50;0.90;;;;;;;18.46;62.73;100497.79;115682;1192;72853;-76
2021/10/02 11:12:16;;;;;;;2.10;0.80;;;;;;;18.59;61.98;100496.12;115561;1193;60323;-76
2021/10/02 11:14:51;;;;;;;1.30;0.80;;;;;;;18.85;60.90;100486.47;115777;1193;61622;-76
2021/10/02 11:17:30;;;;;;;2.30;0.90;;;;;;;19.05;60.48;100489.75;115786;1192;74564;-76
2021/10/02 11:19:57;;;;;;;1.90;0.90;;;;;;;19.17;59.54;100482.36;115621;1193;72172;-76
2021/10/02 11:23:05;;;;;;;2.20;0.90;;;;;;;19.18;59.10;100488.74;115755;1192;73575;-76
2021/10/02 11:25:31;;;;;;;1.40;0.60;;;;;;;19.21;59.45;100483.54;115860;1192;59716;-75
2021/10/02 11:28:25;;;;;;;1.20;0.50;;;;;;;19.23;58.97;100480.13;115637;1193;58830;-76
2021/10/02 11:30:54;;;;;;;2.90;0.50;;;;;;;19.27;58.40;100474.83;115785;1193;74612;-75
2021/10/02 11:33:33;;;;;;;1.30;0.40;;;;;;;19.40;58.58;100471.55;115787;1193;71351;-76
2021/10/02 11:36:20;;;;;;;1.20;0.50;;;;;;;19.61;57.93;100463.45;115858;1192;72598;-76
2021/10/02 11:38:47;;;;;;;1.30;0.60;;;;;;;19.90;57.04;100453.19;115797;1192;59837;-76
2021/10/02 11:41:30;;;;;;;1.80;0.70;;;;;;;20.14;56.40;100444.16;115737;1192;60248;-76
2021/10/02 11:43:57;;;;;;;2.30;0.80;;;;;;;20.44;56.25;100439.06;115788;1193;75586;-76
2021/10/02 11:46:25;;;;;;;1.60;0.70;;;;;;;20.71;54.64;100432.74;115800;1192;71297;-76
2021/10/02 11:48:53;;;;;;;1.00;0.50;;;;;;;20.95;53.49;100429.61;115726;1193;72515;-76
2021/10/02 11:51:25;;;;;;;1.50;0.90;;;;;;;21.15;53.19;100423.77;115779;1193;61528;-76
2021/10/02 11:53:54;;;;;;;2.20;1.10;;;;;;;21.34;52.73;100424.36;115783;1193;60511;-76
2021/10/02 11:56:23;;;;;;;1.20;0.60;;;;;;;21.58;52.42;100425.93;115789;1192;77462;-76
2021/10/02 11:58:53;;;;;;;1.40;0.50;;;;;;;21.67;51.62;100421.44;115666;1192;70462;-76
2021/10/02 12:01:42;;;;;;;1.40;0.70;;;;;;;22.07;51.42;100425.08;115680;1192;73181;-77
2021/10/02 12:04:14;;;;;;;1.80;0.70;;;;;;;22.22;50.63;100420.13;115779;1192;60293;-76
2021/10/02 12:06:46;;;;;;;0.80;0.40;;;;;;;22.26;50.19;100417.40;115760;1193;61115;-76
2021/10/02 12:09:17;;;;;;;1.20;0.50;;;;;;;22.42;48.72;100421.69;115799;1193;75971;-76
2021/10/02 12:11:48;;;;;;;1.90;0.70;;;;;;;22.39;48.01;100420.05;115744;1192;70496;-76
2021/10/02 12:14:17;;;;;;;1.30;0.60;;;;;;;22.44;48.28;100415.97;115749;1193;73396;-76
2021/10/02 12:16:52;;;;;;;0.80;0.40;;;;;;;22.41;47.64;100415.73;115850;1193;62292;-77
2021/10/02 12:19:21;;;;;;;1.50;0.60;;;;;;;22.20;48.42;100419.14;115752;1193;60656;-76
2021/10/02 12:21:57;;;;;;;1.40;0.80;;;;;;;21.90;48.83;100425.10;115775;1192;77012;-76
2021/10/02 12:24:27;;;;;;;2.00;0.50;;;;;;;21.92;48.97;100417.39;115756;1186;72041;-77